Aberdeen, WA

5:25 PM PDT on August 31, 2015 (GMT -0700)
Central Park 2 | | Change Station
CLOSE
Current Station
Personal Weather Station
Location: Aberdeen, WA
Elevation: 33 ft
Nearby Weather Stations

Elev 33 ft 46.97 °N, 123.72 °W | Updated 13 minutes ago

Overcast
Overcast
63.9 °F
Feels Like 63.9 °F
N
3.2
Wind Variable Wind from WSW

Today
High -- | Low -- °F
--% Chance of Precip.
Yesterday
High -- | Low -- °F
Precip. -- in
6:32 AM 7:56 PM
Waning Gibbous, 93% visible
Pressure 29.96 in
Visibility 6.0 miles
Clouds Mostly Cloudy 4300 ft
Overcast 6000 ft
Dew Point 62 °F
Humidity 93%
Rainfall 0.17 in
Snow Depth Not available.
UV 1 out of 12
Pollen .50 out of 12
Air Quality Not available.
Flu Activity Not available.
METAR KHQM 312353Z AUTO 19013KT 6SM HZ BKN043 OVC060 18/14 A2994 RMK AO2 SLP143 T01830144 10183 20167 56013 $
Pressure 29.96 in
Visibility 6.0 miles
Clouds Mostly Cloudy 4300 ft
Overcast 6000 ft
Dew Point 62 °F
Humidity 93%
Rainfall 0.17 in
Snow Depth Not available.
UV 1 out of 12
Pollen .50 out of 12
Air Quality Not available.
Flu Activity Not available.
METAR KHQM 312353Z AUTO 19013KT 6SM HZ BKN043 OVC060 18/14 A2994 RMK AO2 SLP143 T01830144 10183 20167 56013 $

10-Day Weather Forecast

×

Almanac

Astronomy

Aug. 31, 2015 Rise Set
Actual Time
Civil Twilight
Nautical Twilight
Astronomical Twilight
Moon
Length of Visible Light
Length of Day
Tomorrow will be .
, % of the Moon is Illuminated

Today's Extremes

State Highs State Lows

Community

WunderPhotos

Upload Photos

1,851,405 photos uploaded!

WunderBlogs® & News

Nearby

Air Quality

  Air Quality AQ Index Pollutant
Not available.

Snow Depth

Station Depth Elevation

Earthquake Activity

City Distance Mag. Time & Date
Minimum magnitude displayed is 2.5.

Coastal Water Temperatures

Place Temperature

Stations

Nearby Weather Stations

Station Location Temp. Windchill Dew Point Humidity Wind Precip. Elev Updated Type